Time;durP1;ratioP1;P1;durP2;ratioP2;P2;SDS_P1;SDS_P2;PMS_P1;PMS_P2;Temp;Humidity;BMP_temperature;BMP_pressure;BME280_temperature;BME280_humidity;BME280_pressure;Samples;Min_cycle;Max_cycle;Signal;HPM_P1;HPM_P2
2021/08/06 00:01:44;;;;;;;0.10;0.10;;;;;;;15.20;94.21;100079.13;5063147;28;20402;-88
2021/08/06 00:04:19;;;;;;;0.10;0.10;;;;;;;15.20;93.91;100079.91;5074539;28;20052;-88
2021/08/06 00:06:47;;;;;;;0.20;0.20;;;;;;;15.14;94.35;100082.03;5074352;28;20052;-89
2021/08/06 00:09:53;;;;;;;0.10;0.10;;;;;;;15.19;93.65;100086.56;5070171;28;20060;-88
2021/08/06 00:12:22;;;;;;;0.10;0.10;;;;;;;15.14;94.34;100089.47;5063702;28;20512;-88
2021/08/06 00:15:25;;;;;;;0.10;0.10;;;;;;;15.08;94.34;100088.00;5074321;28;20064;-88
2021/08/06 00:18:07;;;;;;;0.10;0.10;;;;;;;15.07;93.64;100073.50;5068873;28;20052;-88
2021/08/06 00:20:41;;;;;;;0.15;0.15;;;;;;;15.07;94.25;100076.25;5062720;28;20053;-87
2021/08/06 00:23:15;;;;;;;0.10;0.10;;;;;;;15.06;93.78;100077.38;5073761;28;20485;-89
2021/08/06 00:25:43;;;;;;;0.10;0.10;;;;;;;15.06;94.24;100079.31;5072674;28;20052;-88
2021/08/06 00:28:16;;;;;;;0.10;0.10;;;;;;;15.01;94.33;100074.00;5062127;28;20397;-88
2021/08/06 00:30:49;;;;;;;0.10;0.10;;;;;;;15.02;94.48;100072.88;5073485;28;20048;-88
2021/08/06 00:33:23;;;;;;;0.10;0.10;;;;;;;15.02;94.19;100072.88;5073562;28;20052;-88
2021/08/06 00:35:53;;;;;;;0.10;0.10;;;;;;;14.99;95.04;100068.84;5073800;28;20497;-88
2021/08/06 00:38:42;;;;;;;0.10;0.10;;;;;;;14.97;94.61;100062.91;5060249;28;20068;-88
2021/08/06 00:41:15;;;;;;;0.10;0.10;;;;;;;14.95;94.77;100065.94;5066792;28;20055;-88
2021/08/06 00:43:56;;;;;;;0.10;0.10;;;;;;;14.98;94.46;100063.69;5072849;28;20056;-88
2021/08/06 00:46:30;;;;;;;0.20;0.20;;;;;;;14.89;94.53;100053.53;5064380;28;20489;-87
2021/08/06 00:49:01;;;;;;;0.10;0.10;;;;;;;14.95;94.29;100060.44;5072873;28;20048;-87
2021/08/06 00:52:02;;;;;;;0.10;0.10;;;;;;;14.91;94.31;100062.22;5073926;28;20051;-88
2021/08/06 00:54:38;;;;;;;0.10;0.10;;;;;;;15.01;93.65;100063.03;5065521;28;20047;-87
2021/08/06 00:57:17;;;;;;;0.10;0.10;;;;;;;14.94;93.96;100066.25;5073359;28;20055;-88
2021/08/06 01:00:01;;;;;;;0.10;0.10;;;;;;;14.88;95.03;100054.66;5064557;28;20057;-87
2021/08/06 01:02:42;;;;;;;0.10;0.10;;;;;;;14.90;94.32;100055.16;5069364;28;20048;-88
2021/08/06 01:05:18;;;;;;;0.10;0.10;;;;;;;14.84;95.68;100058.38;5073029;28;20056;-89
2021/08/06 01:07:54;;;;;;;0.10;0.10;;;;;;;14.84;95.81;100056.44;5073502;28;20044;-89
2021/08/06 01:10:38;;;;;;;0.10;0.10;;;;;;;14.54;95.51;100012.47;5072298;28;20051;-88
2021/08/06 01:13:10;;;;;;;0.10;0.10;;;;;;;14.78;95.30;100052.28;5072466;28;20067;-88
2021/08/06 01:15:43;;;;;;;0.10;0.10;;;;;;;14.82;95.14;100052.41;5071728;28;20048;-88
2021/08/06 01:18:20;;;;;;;0.10;0.10;;;;;;;14.75;94.77;100050.97;5063584;28;20044;-88
2021/08/06 01:20:52;;;;;;;0.10;0.10;;;;;;;14.77;95.27;100051.44;5071592;28;20060;-89
2021/08/06 01:23:29;;;;;;;0.10;0.10;;;;;;;14.75;95.81;100056.47;5064096;28;20049;-88
2021/08/06 01:26:01;;;;;;;0.20;0.20;;;;;;;14.75;95.68;100056.47;5070804;28;20052;-88
2021/08/06 01:29:01;;;;;;;0.10;0.10;;;;;;;14.74;95.87;100059.53;5072444;28;20071;-88
2021/08/06 01:31:44;;;;;;;0.10;0.10;;;;;;;14.72;95.54;100053.56;5072285;28;20059;-89
2021/08/06 01:34:17;;;;;;;0.10;0.10;;;;;;;14.71;95.75;100062.91;5072473;28;20051;-88
2021/08/06 01:36:51;;;;;;;0.10;0.10;;;;;;;14.67;96.48;100070.16;5074846;28;20047;-88
2021/08/06 01:39:38;;;;;;;0.20;0.20;;;;;;;14.67;95.55;100070.16;5068467;28;20041;-88
2021/08/06 01:42:22;;;;;;;0.10;0.10;;;;;;;14.64;96.97;100063.41;5054910;28;20045;-88
2021/08/06 01:44:57;;;;;;;0.10;0.10;;;;;;;14.63;96.38;100056.31;5073338;28;20361;-88
2021/08/06 01:47:40;;;;;;;0.10;0.10;;;;;;;14.61;96.63;100053.03;5081773;28;20056;-87
2021/08/06 01:50:27;;;;;;;0.10;0.10;;;;;;;14.62;96.40;100058.25;5067337;28;20040;-88
2021/08/06 01:53:01;;;;;;;0.10;0.10;;;;;;;14.62;96.05;100060.97;5060528;28;20044;-88
2021/08/06 01:55:51;;;;;;;0.10;0.10;;;;;;;14.59;96.47;100058.03;5071708;28;20060;-88
2021/08/06 01:58:29;;;;;;;0.10;0.10;;;;;;;14.59;96.01;100052.56;5064945;28;20040;-87
2021/08/06 02:01:12;;;;;;;0.10;0.10;;;;;;;14.57;96.29;100055.63;5068150;28;20067;-88
2021/08/06 02:03:44;;;;;;;0.10;0.10;;;;;;;14.53;95.93;100053.84;5072679;28;20049;-89
2021/08/06 02:06:30;;;;;;;0.10;0.10;;;;;;;14.41;96.31;100038.06;5061179;28;20052;-89
2021/08/06 02:09:08;;;;;;;0.10;0.10;;;;;;;14.47;97.08;100058.66;5069957;28;20048;-88
2021/08/06 02:12:36;;;;;;;0.15;0.15;;;;;;;14.49;96.71;100050.97;5061323;28;20052;-88
2021/08/06 02:15:13;;;;;;;0.10;0.10;;;;;;;14.42;97.08;100042.44;5071238;28;20083;-88
2021/08/06 02:17:45;;;;;;;0.10;0.10;;;;;;;14.38;97.45;100055.94;5071690;28;20397;-88
2021/08/06 02:20:31;;;;;;;0.20;0.20;;;;;;;14.27;97.59;100028.06;5072138;28;20056;-87
2021/08/06 02:23:07;;;;;;;0.10;0.10;;;;;;;14.19;97.65;100023.38;5070497;28;20055;-88
2021/08/06 02:25:45;;;;;;;0.10;0.10;;;;;;;14.23;97.13;100042.72;5080788;28;20048;-88
2021/08/06 02:28:20;;;;;;;0.10;0.10;;;;;;;14.26;97.05;100048.34;5065852;28;20405;-88
2021/08/06 02:30:56;;;;;;;0.10;0.10;;;;;;;14.18;97.21;100048.34;5071194;28;20520;-87
2021/08/06 02:33:55;;;;;;;0.10;0.10;;;;;;;14.33;97.75;100055.28;5063750;28;20517;-87
2021/08/06 02:36:23;;;;;;;0.10;0.10;;;;;;;14.18;97.67;100048.34;5059355;28;20060;-87
2021/08/06 02:38:59;;;;;;;0.10;0.10;;;;;;;14.15;97.42;100047.03;5068477;28;20075;-88
2021/08/06 02:41:35;;;;;;;0.20;0.20;;;;;;;14.05;97.81;100039.16;5073075;28;20080;-87
2021/08/06 02:44:08;;;;;;;0.10;0.10;;;;;;;14.03;97.35;100042.22;5054616;28;20504;-88
2021/08/06 02:46:54;;;;;;;0.10;0.10;;;;;;;14.10;97.06;100034.34;5058550;28;20052;-88
2021/08/06 02:49:31;;;;;;;0.10;0.10;;;;;;;13.99;97.55;100038.50;5073156;28;20444;-88
2021/08/06 02:52:00;;;;;;;0.10;0.10;;;;;;;13.90;98.20;100035.72;5071296;28;20049;-88
2021/08/06 02:54:29;;;;;;;0.10;0.10;;;;;;;13.78;98.00;100021.84;5071339;28;20051;-88
2021/08/06 02:57:04;;;;;;;0.17;0.17;;;;;;;13.77;98.13;100029.28;5073160;28;20045;-88
2021/08/06 02:59:39;;;;;;;0.10;0.10;;;;;;;13.75;98.37;100028.78;5071231;28;20050;-87
2021/08/06 03:02:40;;;;;;;0.17;0.17;;;;;;;13.86;98.04;100031.22;5071215;28;20048;-87
2021/08/06 03:05:13;;;;;;;0.10;0.10;;;;;;;13.82;97.82;100030.25;5059113;28;20055;-88
2021/08/06 03:07:50;;;;;;;0.20;0.20;;;;;;;13.53;97.75;99993.31;5071001;28;20190;-87
2021/08/06 03:10:29;;;;;;;0.10;0.10;;;;;;;13.78;97.75;100035.53;5066421;28;20045;-88
2021/08/06 03:13:03;;;;;;;0.13;0.13;;;;;;;13.74;97.80;100029.91;5069889;28;20057;-89
2021/08/06 03:15:38;;;;;;;0.38;0.10;;;;;;;13.78;97.32;100025.41;5071077;28;20044;-85
2021/08/06 03:18:13;;;;;;;0.20;0.20;;;;;;;13.66;97.72;100014.28;5070710;28;20051;-88
2021/08/06 03:20:46;;;;;;;0.10;0.10;;;;;;;13.72;97.47;100029.41;5071674;28;20051;-87
2021/08/06 03:23:20;;;;;;;0.10;0.10;;;;;;;13.73;97.97;100032.97;5070654;28;20520;-88
2021/08/06 03:25:49;;;;;;;0.10;0.10;;;;;;;13.63;98.20;100025.03;5070818;28;20060;-88
2021/08/06 03:28:24;;;;;;;0.15;0.10;;;;;;;13.65;98.42;100025.53;5071132;28;20044;-88
2021/08/06 03:30:57;;;;;;;0.10;0.10;;;;;;;13.60;98.06;100024.56;5072861;28;20060;-88
2021/08/06 03:33:27;;;;;;;0.10;0.10;;;;;;;13.60;97.96;100013.63;5062129;28;20495;-88
2021/08/06 03:36:01;;;;;;;0.10;0.10;;;;;;;13.57;98.17;100010.69;5050927;28;20052;-88
2021/08/06 03:38:35;;;;;;;0.10;0.10;;;;;;;13.56;97.63;100020.84;5051133;28;20048;-88
2021/08/06 03:41:09;;;;;;;0.10;0.10;;;;;;;13.53;97.79;100024.19;5069627;28;20053;-88
2021/08/06 03:43:43;;;;;;;0.10;0.10;;;;;;;13.54;97.50;100020.34;5070913;28;20048;-87
2021/08/06 03:46:16;;;;;;;0.10;0.10;;;;;;;13.47;97.67;100005.53;5071258;28;20524;-88
2021/08/06 03:48:52;;;;;;;0.10;0.10;;;;;;;13.34;98.39;99996.28;5071430;28;20048;-87
2021/08/06 03:51:38;;;;;;;0.10;0.10;;;;;;;13.27;98.89;99999.44;5066880;28;20045;-88
2021/08/06 03:54:12;;;;;;;0.13;0.13;;;;;;;13.38;98.11;100016.41;5071094;28;20048;-87
2021/08/06 03:56:51;;;;;;;0.10;0.10;;;;;;;13.28;98.64;100003.81;5068332;28;20052;-88
2021/08/06 03:59:19;;;;;;;0.10;0.10;;;;;;;13.36;97.64;100013.19;5070853;28;20052;-87
2021/08/06 04:01:53;;;;;;;0.10;0.10;;;;;;;13.35;97.69;100015.09;5070213;28;20055;-88
2021/08/06 04:04:28;;;;;;;0.10;0.10;;;;;;;13.31;97.41;100005.91;5067854;28;20409;-88
2021/08/06 04:06:56;;;;;;;0.10;0.10;;;;;;;13.33;97.16;100014.59;5052501;28;20049;-88
2021/08/06 04:09:30;;;;;;;0.10;0.10;;;;;;;13.31;96.90;100005.09;5052119;28;20056;-88
2021/08/06 04:12:24;;;;;;;0.10;0.10;;;;;;;13.25;97.31;100007.97;5070621;28;20048;-88
2021/08/06 04:14:57;;;;;;;0.15;0.15;;;;;;;13.27;96.79;100007.66;5068996;28;20531;-88
2021/08/06 04:17:31;;;;;;;0.10;0.10;;;;;;;13.29;96.56;100005.41;5070805;28;20056;-87
2021/08/06 04:20:07;;;;;;;0.10;0.10;;;;;;;13.23;96.53;100002.03;5072355;28;20049;-88
2021/08/06 04:22:43;;;;;;;0.10;0.10;;;;;;;13.24;96.35;100003.66;5069442;28;20045;-88
2021/08/06 04:25:19;;;;;;;0.10;0.10;;;;;;;13.22;96.43;99997.66;5070361;28;20535;-88
2021/08/06 04:27:53;;;;;;;0.40;0.20;;;;;;;13.21;96.49;99995.25;5064632;28;20398;-88
2021/08/06 04:30:21;;;;;;;0.10;0.10;;;;;;;13.18;97.01;99993.16;5069651;28;20290;-87
2021/08/06 04:32:49;;;;;;;0.10;0.10;;;;;;;13.18;97.27;99995.88;5060885;28;20040;-87
2021/08/06 04:35:24;;;;;;;0.10;0.10;;;;;;;13.19;97.90;100000.25;5071053;28;20067;-88
2021/08/06 04:37:58;;;;;;;0.10;0.10;;;;;;;13.22;97.36;99999.59;5052574;28;20056;-88
2021/08/06 04:40:29;;;;;;;0.10;0.10;;;;;;;13.20;97.61;99988.16;5053748;28;20048;-87
2021/08/06 04:43:04;;;;;;;0.20;0.20;;;;;;;13.27;96.87;99988.53;5072621;28;20052;-87
2021/08/06 04:45:38;;;;;;;0.20;0.20;;;;;;;13.32;96.77;99993.84;5074165;28;20040;-87
2021/08/06 04:48:11;;;;;;;0.10;0.10;;;;;;;13.32;97.06;99982.13;5054124;28;20045;-88
2021/08/06 04:50:46;;;;;;;0.10;0.10;;;;;;;13.55;96.13;99991.09;5068626;28;20071;-87
2021/08/06 04:53:19;;;;;;;0.10;0.10;;;;;;;13.38;97.05;99984.44;5075285;28;20048;-88
2021/08/06 04:55:53;;;;;;;0.10;0.10;;;;;;;13.53;97.04;99987.84;5065806;28;20052;-87
2021/08/06 04:58:57;;;;;;;0.20;0.20;;;;;;;13.51;97.11;99982.72;5073517;28;20045;-88
2021/08/06 05:01:31;;;;;;;0.10;0.10;;;;;;;13.38;97.43;99969.94;5071207;28;20049;-87
2021/08/06 05:04:05;;;;;;;0.10;0.10;;;;;;;13.48;96.92;99961.47;5071044;28;20053;-88
2021/08/06 05:06:35;;;;;;;0.20;0.20;;;;;;;13.46;97.24;99968.38;5075465;28;20040;-87
2021/08/06 05:09:14;;;;;;;0.17;0.17;;;;;;;13.59;97.35;99968.25;5073554;28;20408;-87
2021/08/06 05:11:42;;;;;;;0.10;0.10;;;;;;;14.81;92.36;99938.53;5074742;28;20376;-88
2021/08/06 05:14:16;;;;;;;0.20;0.20;;;;;;;16.41;84.81;99955.38;5066859;28;20045;-88
2021/08/06 05:16:45;;;;;;;0.20;0.20;;;;;;;17.30;79.87;99938.41;5071844;28;20662;-88
2021/08/06 05:19:18;;;;;;;0.20;0.20;;;;;;;18.23;76.39;99958.13;5055685;28;20049;-88
2021/08/06 05:21:48;;;;;;;0.10;0.10;;;;;;;18.70;75.25;99952.75;5072762;28;20048;-88
2021/08/06 05:24:21;;;;;;;0.10;0.10;;;;;;;18.91;74.19;99946.25;5070455;28;20052;-87
2021/08/06 05:26:55;;;;;;;0.20;0.20;;;;;;;19.17;72.55;99951.22;5064858;28;20045;-88
2021/08/06 05:29:30;;;;;;;0.20;0.20;;;;;;;19.57;71.26;99951.38;5064014;28;20052;-89
2021/08/06 05:32:04;;;;;;;0.20;0.20;;;;;;;19.93;70.47;99950.25;5068797;28;20048;-89
2021/08/06 05:34:39;;;;;;;0.10;0.10;;;;;;;19.43;71.05;99943.56;5072351;28;20060;-89
2021/08/06 05:37:13;;;;;;;0.10;0.10;;;;;;;18.86;73.18;99938.19;5072878;28;20477;-89
2021/08/06 05:39:47;;;;;;;0.10;0.10;;;;;;;17.75;77.66;99946.88;5072953;28;20047;-88
2021/08/06 05:42:15;;;;;;;0.10;0.10;;;;;;;17.17;80.52;99947.78;5063253;28;20048;-89
2021/08/06 05:44:49;;;;;;;0.10;0.10;;;;;;;17.19;79.74;99942.75;5070745;28;20044;-88
2021/08/06 05:47:18;;;;;;;0.10;0.10;;;;;;;16.87;82.38;99945.19;5071770;28;20068;-89
2021/08/06 05:49:51;;;;;;;0.10;0.10;;;;;;;16.38;84.75;99947.78;5084046;28;20397;-89
2021/08/06 05:52:26;;;;;;;0.10;0.10;;;;;;;16.03;85.92;99953.56;5072080;28;20053;-88
2021/08/06 05:54:59;;;;;;;0.10;0.10;;;;;;;15.84;86.78;99952.09;5068679;28;20067;-88
2021/08/06 05:57:33;;;;;;;0.10;0.10;;;;;;;15.96;86.83;99949.44;5061201;28;20386;-89
2021/08/06 06:00:08;;;;;;;0.10;0.10;;;;;;;15.81;87.55;99947.25;5069231;28;20044;-89
2021/08/06 06:02:42;;;;;;;0.10;0.10;;;;;;;15.68;87.93;99948.28;5075771;28;20049;-91
2021/08/06 06:05:43;;;;;;;0.10;0.10;;;;;;;15.68;88.30;99948.28;5056215;28;20896;-88
2021/08/06 06:08:38;;;;;;;0.10;0.10;;;;;;;15.80;88.32;99953.91;5053873;28;20064;-87
2021/08/06 06:11:12;;;;;;;0.10;0.10;;;;;;;15.91;87.67;99954.28;5052258;28;20171;-88
2021/08/06 06:13:45;;;;;;;0.10;0.10;;;;;;;16.05;87.04;99952.09;5052761;28;20060;-87
2021/08/06 06:16:19;;;;;;;0.10;0.10;;;;;;;15.94;87.23;99950.91;5052181;28;20056;-87
2021/08/06 06:19:44;;;;;;;0.10;0.10;;;;;;;15.97;87.85;99942.00;5052811;28;20060;-88
2021/08/06 06:22:13;;;;;;;0.10;0.10;;;;;;;15.88;88.04;99946.72;5048998;28;20060;-87
2021/08/06 06:24:47;;;;;;;0.20;0.20;;;;;;;16.02;87.55;99943.72;5053871;28;20055;-88
2021/08/06 06:27:23;;;;;;;0.10;0.10;;;;;;;16.10;88.10;99945.59;5054278;28;20567;-88
2021/08/06 06:29:57;;;;;;;0.20;0.20;;;;;;;16.26;86.94;99937.56;5052388;28;20057;-88
2021/08/06 06:32:26;;;;;;;0.10;0.10;;;;;;;16.34;86.45;99939.44;5052765;28;20052;-87
2021/08/06 06:34:54;;;;;;;0.10;0.10;;;;;;;16.48;86.70;99923.44;5054502;28;20412;-87
2021/08/06 06:37:23;;;;;;;0.10;0.10;;;;;;;16.75;82.62;99925.94;5056060;28;20528;-86
2021/08/06 06:39:57;;;;;;;0.20;0.20;;;;;;;16.88;82.68;99933.06;5052748;28;20057;-87
2021/08/06 06:42:27;;;;;;;0.10;0.10;;;;;;;16.93;83.63;99930.13;5053535;28;20076;-88
2021/08/06 06:45:00;;;;;;;0.10;0.10;;;;;;;16.79;84.53;99922.19;5054681;28;20057;-88
2021/08/06 06:47:35;;;;;;;0.10;0.10;;;;;;;16.91;84.64;99926.13;5052762;28;20049;-87
2021/08/06 06:50:05;;;;;;;0.10;0.10;;;;;;;16.98;83.64;99920.84;5053354;28;20139;-85
2021/08/06 06:52:34;;;;;;;0.10;0.10;;;;;;;17.06;83.69;99921.91;5050969;28;20589;-87
2021/08/06 06:55:10;;;;;;;0.10;0.10;;;;;;;17.00;83.93;99915.81;5052466;28;20056;-89
2021/08/06 06:57:43;;;;;;;0.10;0.10;;;;;;;17.31;80.76;99919.97;5068764;28;20056;-88
2021/08/06 07:00:19;;;;;;;0.10;0.10;;;;;;;17.29;83.15;99922.22;5052915;28;20079;-87
2021/08/06 07:03:18;;;;;;;0.10;0.10;;;;;;;17.47;82.18;99920.88;5050988;28;20048;-87
2021/08/06 07:05:54;;;;;;;0.10;0.10;;;;;;;17.37;82.32;99904.81;5048913;28;20049;-87
2021/08/06 07:08:30;;;;;;;0.17;0.17;;;;;;;17.40;82.73;99906.91;5048392;28;20049;-88
2021/08/06 07:11:03;;;;;;;0.10;0.10;;;;;;;17.75;82.01;99919.34;5049817;28;20063;-87
2021/08/06 07:13:48;;;;;;;0.10;0.10;;;;;;;17.80;81.53;99916.34;5053428;28;20068;-87
2021/08/06 07:17:15;;;;;;;0.10;0.10;;;;;;;17.79;80.83;99923.81;5060881;28;20056;-86
2021/08/06 07:25:14;;;;;;;0.10;0.10;;;;;;;18.10;79.28;99916.84;5066373;28;20043;-85
2021/08/06 07:27:49;;;;;;;0.10;0.10;;;;;;;18.27;80.28;99917.72;5060305;28;20068;-85
2021/08/06 07:30:22;;;;;;;0.10;0.10;;;;;;;18.31;78.85;99916.69;5049891;28;21388;-86
2021/08/06 07:33:03;;;;;;;0.10;0.10;;;;;;;18.29;79.21;99907.16;5048565;28;20061;-85
2021/08/06 07:35:58;;;;;;;0.10;0.10;;;;;;;18.53;78.12;99915.31;5052878;28;20074;-85
2021/08/06 07:38:33;;;;;;;0.10;0.10;;;;;;;18.56;76.86;99916.56;5049870;28;20059;-86
2021/08/06 07:41:28;;;;;;;0.10;0.10;;;;;;;18.64;74.01;99921.09;5050368;28;20053;-87
2021/08/06 07:44:02;;;;;;;0.10;0.10;;;;;;;18.65;75.67;99917.19;5048686;28;20048;-85
2021/08/06 07:46:32;;;;;;;0.10;0.10;;;;;;;18.74;75.29;99907.94;5055565;28;20060;-86
2021/08/06 07:49:00;;;;;;;0.20;0.20;;;;;;;18.85;75.28;99922.78;5058103;28;20060;-85
2021/08/06 07:51:36;;;;;;;0.13;0.13;;;;;;;18.85;75.93;99920.84;5049175;28;20051;-84
2021/08/06 07:54:11;;;;;;;0.10;0.10;;;;;;;18.73;74.78;99928.41;5046116;28;20638;-85
2021/08/06 07:56:40;;;;;;;0.10;0.10;;;;;;;18.84;75.61;99908.22;5051524;28;20056;-85
2021/08/06 07:59:11;;;;;;;0.10;0.10;;;;;;;19.00;74.51;99904.69;5050749;28;20421;-87
2021/08/06 08:01:45;;;;;;;0.10;0.10;;;;;;;19.03;75.41;99910.31;5047653;28;20056;-85
2021/08/06 08:04:33;;;;;;;0.10;0.10;;;;;;;19.25;75.33;99916.34;5049644;28;20064;-85
2021/08/06 08:07:09;;;;;;;0.10;0.10;;;;;;;19.22;75.63;99906.00;5051528;28;20045;-86
2021/08/06 08:09:42;;;;;;;0.10;0.10;;;;;;;19.35;74.06;99902.00;5048541;28;20827;-88
2021/08/06 08:12:17;;;;;;;0.17;0.17;;;;;;;19.48;72.49;99896.38;5053978;28;20056;-88
2021/08/06 08:14:48;;;;;;;0.10;0.10;;;;;;;19.66;71.48;99899.53;5049477;28;20048;-86
2021/08/06 08:17:50;;;;;;;0.10;0.10;;;;;;;19.89;73.83;99896.91;5049702;28;20052;-88
2021/08/06 08:20:18;;;;;;;0.10;0.10;;;;;;;19.86;68.35;99897.63;5052895;28;20709;-86
2021/08/06 08:22:52;;;;;;;0.20;0.20;;;;;;;19.64;71.58;99893.59;5054695;28;20087;-87
2021/08/06 08:25:20;;;;;;;0.10;0.10;;;;;;;19.60;73.89;99892.72;5053961;28;20052;-86
2021/08/06 08:27:54;;;;;;;0.10;0.10;;;;;;;19.75;73.20;99893.78;5054851;28;20410;-87
2021/08/06 08:30:24;;;;;;;0.10;0.10;;;;;;;19.76;72.35;99898.97;5053045;28;20057;-86
2021/08/06 08:32:52;;;;;;;0.10;0.10;;;;;;;19.83;71.04;99888.13;5054580;28;21030;-87
2021/08/06 08:35:21;;;;;;;0.10;0.10;;;;;;;19.85;71.56;99890.50;5054083;28;20056;-88
2021/08/06 08:37:54;;;;;;;0.10;0.10;;;;;;;19.62;72.21;99852.53;5057046;28;20062;-85
2021/08/06 08:41:18;;;;;;;0.10;0.10;;;;;;;19.93;72.11;99899.72;5052103;28;20052;-85
2021/08/06 08:43:52;;;;;;;0.10;0.10;;;;;;;20.09;70.59;99885.88;5054825;28;20052;-85
2021/08/06 08:46:27;;;;;;;0.10;0.10;;;;;;;20.14;70.24;99882.81;5054509;28;20056;-87
2021/08/06 08:49:22;;;;;;;0.10;0.10;;;;;;;20.19;71.56;99883.31;5055290;28;20064;-88
2021/08/06 08:51:56;;;;;;;0.22;0.10;;;;;;;20.25;69.76;99863.69;5051515;28;20534;-87
2021/08/06 08:54:29;;;;;;;0.10;0.10;;;;;;;20.45;68.95;99867.19;5058058;28;20060;-86
2021/08/06 08:57:04;;;;;;;0.10;0.10;;;;;;;20.43;70.08;99847.44;5053664;28;20053;-85
2021/08/06 08:59:38;;;;;;;0.10;0.10;;;;;;;20.81;68.37;99871.44;5054643;28;20044;-87
2021/08/06 09:02:10;;;;;;;0.10;0.10;;;;;;;20.88;69.74;99849.44;5053379;28;20059;-86
2021/08/06 09:04:48;;;;;;;0.10;0.10;;;;;;;21.07;69.20;99869.84;5056298;28;20060;-88
2021/08/06 09:07:30;;;;;;;0.10;0.10;;;;;;;20.98;66.65;99858.28;5054599;28;20059;-86
2021/08/06 09:10:25;;;;;;;0.10;0.10;;;;;;;21.01;68.21;99863.84;5056451;28;20052;-85
2021/08/06 09:13:22;;;;;;;0.10;0.10;;;;;;;20.84;68.36;99861.59;5064976;28;20051;-86
2021/08/06 09:16:01;;;;;;;0.10;0.10;;;;;;;20.98;68.37;99855.50;5056207;28;20519;-85
2021/08/06 09:18:43;;;;;;;0.10;0.10;;;;;;;21.13;66.11;99862.84;5052041;28;20052;-85
2021/08/06 09:21:22;;;;;;;0.10;0.10;;;;;;;21.15;67.74;99863.28;5053993;28;20053;-87
2021/08/06 09:23:56;;;;;;;0.10;0.10;;;;;;;21.12;66.62;99852.97;5058332;28;20053;-86
2021/08/06 09:26:41;;;;;;;0.10;0.10;;;;;;;21.15;67.00;99852.19;5056885;28;20063;-85
2021/08/06 09:29:11;;;;;;;0.10;0.10;;;;;;;21.13;67.64;99828.84;5070643;28;20060;-86
2021/08/06 09:31:57;;;;;;;0.10;0.10;;;;;;;21.30;63.39;99856.00;5055429;28;20060;-87
2021/08/06 09:34:35;;;;;;;0.10;0.10;;;;;;;21.43;65.30;99856.56;5062437;28;20067;-87
2021/08/06 09:37:18;;;;;;;0.10;0.10;;;;;;;21.48;62.89;99858.22;5052542;28;20060;-86
2021/08/06 09:40:15;;;;;;;0.10;0.10;;;;;;;21.74;63.22;99860.97;5055395;28;20424;-87
2021/08/06 09:42:56;;;;;;;0.10;0.10;;;;;;;21.70;63.47;99856.56;5054081;28;20508;-88
2021/08/06 09:45:55;;;;;;;0.10;0.10;;;;;;;21.64;60.10;99856.09;5055337;28;20532;-87
2021/08/06 09:48:24;;;;;;;0.10;0.10;;;;;;;21.66;59.83;99830.81;5057679;28;20059;-86
2021/08/06 09:50:58;;;;;;;0.10;0.10;;;;;;;21.74;59.94;99843.56;5059931;28;21325;-86
2021/08/06 09:53:27;;;;;;;0.10;0.10;;;;;;;21.81;59.70;99843.66;5054656;28;20044;-85
2021/08/06 09:56:27;;;;;;;0.10;0.10;;;;;;;21.76;59.48;99849.50;5056451;28;20559;-87
2021/08/06 09:59:03;;;;;;;0.10;0.10;;;;;;;21.95;61.69;99848.56;5053719;28;20056;-86
2021/08/06 10:01:37;;;;;;;0.10;0.10;;;;;;;22.08;59.55;99843.56;5053687;28;20637;-86
2021/08/06 10:04:15;;;;;;;0.10;0.10;;;;;;;21.99;61.39;99815.38;5055090;28;20703;-87
2021/08/06 10:06:58;;;;;;;0.10;0.10;;;;;;;22.25;60.19;99839.41;5059520;28;20044;-87
2021/08/06 10:09:27;;;;;;;0.10;0.10;;;;;;;22.55;60.38;99844.06;5053504;28;20068;-88
2021/08/06 10:11:58;;;;;;;0.10;0.10;;;;;;;22.67;59.08;99843.00;5053814;28;20088;-88
2021/08/06 10:14:26;;;;;;;0.10;0.10;;;;;;;22.57;57.53;99828.63;5053625;28;20041;-87
2021/08/06 10:17:05;;;;;;;0.10;0.10;;;;;;;22.58;58.80;99821.91;5053175;28;20049;-87
2021/08/06 10:19:34;;;;;;;0.10;0.10;;;;;;;22.79;60.11;99820.50;5057653;28;20095;-86
2021/08/06 10:22:10;;;;;;;0.10;0.10;;;;;;;22.84;59.27;99833.22;5054955;28;20051;-88
2021/08/06 10:24:47;;;;;;;0.10;0.10;;;;;;;22.72;59.25;99824.03;5054007;28;20055;-88
2021/08/06 10:27:22;;;;;;;0.10;0.10;;;;;;;22.70;61.51;99831.13;5051256;28;20056;-86
2021/08/06 10:29:58;;;;;;;0.10;0.10;;;;;;;22.81;60.58;99826.44;5054156;28;20056;-87
2021/08/06 10:32:27;;;;;;;0.10;0.10;;;;;;;22.41;62.02;99830.84;5056675;28;20063;-88
2021/08/06 10:35:12;;;;;;;0.10;0.10;;;;;;;22.26;62.78;99821.56;5052844;28;20057;-89
2021/08/06 10:38:15;;;;;;;0.10;0.10;;;;;;;22.04;61.43;99823.31;5052832;28;20057;-87
2021/08/06 10:41:17;;;;;;;0.10;0.10;;;;;;;22.35;57.64;99816.56;5054121;28;20063;-89
2021/08/06 10:44:17;;;;;;;0.10;0.10;;;;;;;22.90;63.68;99804.72;5060712;28;20702;-89
2021/08/06 10:47:07;;;;;;;0.10;0.10;;;;;;;22.38;61.32;99821.31;5056236;28;20064;-86
2021/08/06 10:49:35;;;;;;;0.10;0.10;;;;;;;22.48;60.58;99814.28;5047234;28;20053;-88
2021/08/06 10:52:17;;;;;;;0.10;0.10;;;;;;;21.93;58.42;99798.28;5051640;28;20049;-87
2021/08/06 10:55:11;;;;;;;;;;;;;;;21.99;58.48;99812.59;5050077;28;20064;-89
2021/08/06 10:57:45;;;;;;;0.10;0.10;;;;;;;21.55;62.20;99780.84;5051914;28;19924;-88
2021/08/06 11:00:34;;;;;;;0.10;0.10;;;;;;;22.52;62.28;99800.47;5050591;28;20056;-88
2021/08/06 11:03:37;;;;;;;0.10;0.10;;;;;;;22.80;60.07;99799.09;5051396;28;20404;-88
2021/08/06 11:06:31;;;;;;;0.10;0.10;;;;;;;22.13;59.50;99792.56;5052782;28;20053;-88
2021/08/06 11:09:01;;;;;;;0.10;0.10;;;;;;;22.27;60.18;99805.75;5037980;28;21054;-88
2021/08/06 11:11:51;;;;;;;0.10;0.10;;;;;;;23.02;60.03;99800.88;5048145;28;20126;-89
2021/08/06 11:15:03;;;;;;;0.10;0.10;;;;;;;22.93;58.53;99783.75;5053272;28;20037;-87
2021/08/06 11:17:47;;;;;;;0.10;0.10;;;;;;;22.39;57.15;99792.44;5056009;28;20060;-86
2021/08/06 11:20:54;;;;;;;0.10;0.10;;;;;;;22.95;60.06;99788.91;5055581;28;20048;-88
2021/08/06 11:23:38;;;;;;;0.10;0.10;;;;;;;22.87;58.23;99782.50;5047154;28;20047;-87
2021/08/06 11:26:13;;;;;;;0.10;0.10;;;;;;;22.77;53.79;99775.69;5049558;28;21301;-89
2021/08/06 11:29:14;;;;;;;0.10;0.10;;;;;;;22.63;53.88;99767.28;5050284;28;20045;-88
2021/08/06 11:32:07;;;;;;;0.10;0.10;;;;;;;22.39;60.14;99775.81;5049308;28;20063;-87
2021/08/06 11:34:56;;;;;;;0.10;0.10;;;;;;;22.45;56.27;99750.50;5050741;28;20053;-89
2021/08/06 11:37:48;;;;;;;0.10;0.10;;;;;;;22.12;58.36;99761.25;5051937;28;21171;-87
2021/08/06 11:40:19;;;;;;;0.10;0.10;;;;;;;21.92;56.84;99763.47;5052230;28;20067;-87
2021/08/06 11:42:48;;;;;;;0.10;0.10;;;;;;;21.76;56.79;99749.81;5051415;28;20056;-87
2021/08/06 11:45:18;;;;;;;0.10;0.10;;;;;;;21.65;58.42;99759.97;5047410;28;20588;-88
2021/08/06 11:47:54;;;;;;;0.10;0.10;;;;;;;22.24;57.80;99749.91;5051305;28;20052;-88
2021/08/06 11:50:40;;;;;;;0.25;0.20;;;;;;;23.04;58.19;99740.22;5053048;28;20704;-87
2021/08/06 11:53:15;;;;;;;0.10;0.10;;;;;;;22.76;54.07;99746.41;5055260;28;20757;-87
2021/08/06 11:55:47;;;;;;;0.10;0.10;;;;;;;22.19;56.85;99744.72;5055352;28;20485;-87
2021/08/06 11:58:29;;;;;;;0.10;0.10;;;;;;;22.06;56.35;99735.09;5055180;28;20056;-88
2021/08/06 12:00:58;;;;;;;0.20;0.20;;;;;;;22.48;57.43;99733.88;5051325;28;20052;-87
2021/08/06 12:03:26;;;;;;;0.10;0.10;;;;;;;22.73;58.48;99727.72;5054840;28;20052;-88
2021/08/06 12:06:00;;;;;;;0.10;0.10;;;;;;;22.47;56.90;99737.06;5054428;28;20053;-88
2021/08/06 12:08:34;;;;;;;0.10;0.10;;;;;;;23.10;58.92;99735.09;5052001;28;20057;-88
2021/08/06 12:11:13;;;;;;;0.10;0.10;;;;;;;22.94;57.03;99721.53;5051486;28;20378;-88
2021/08/06 12:13:52;;;;;;;0.10;0.10;;;;;;;23.36;56.65;99719.38;5052222;28;20063;-89
2021/08/06 12:16:22;;;;;;;0.10;0.10;;;;;;;23.71;55.27;99726.22;5055782;28;20060;-88
2021/08/06 12:18:52;;;;;;;0.10;0.10;;;;;;;23.02;53.83;99689.06;5054443;28;20057;-89
2021/08/06 12:21:23;;;;;;;0.10;0.10;;;;;;;22.48;55.47;99686.75;5051056;28;20064;-89
2021/08/06 12:23:59;;;;;;;0.10;0.10;;;;;;;23.07;51.72;99697.81;5052671;28;20051;-88
2021/08/06 12:26:43;;;;;;;0.10;0.10;;;;;;;23.43;55.61;99706.31;5051849;28;20728;-87
2021/08/06 12:29:17;;;;;;;0.10;0.10;;;;;;;23.58;55.21;99687.72;5054101;28;20517;-88